Time;durP1;ratioP1;P1;durP2;ratioP2;P2;SDS_P1;SDS_P2;PMS_P1;PMS_P2;Temp;Humidity;BMP_temperature;BMP_pressure;BME280_temperature;BME280_humidity;BME280_pressure;Samples;Min_cycle;Max_cycle;Signal;HPM_P1;HPM_P2
2023/03/11 00:00:35;;;;;;;1.55;1.30;;;;;;;1.33;100.00;99993.09;4978996;28;20038;-81
2023/03/11 00:03:06;;;;;;;1.17;1.08;;;;;;;1.19;100.00;99975.78;4963059;28;20153;-86
2023/03/11 00:05:34;;;;;;;1.75;1.23;;;;;;;1.42;100.00;100007.31;4963132;28;20034;-82
2023/03/11 00:08:01;;;;;;;2.10;0.80;;;;;;;1.34;100.00;99994.75;4962655;28;20515;-83
2023/03/11 00:10:35;;;;;;;0.77;0.77;;;;;;;1.36;100.00;99995.47;4962772;28;20018;-91
2023/03/11 00:13:01;;;;;;;1.88;0.95;;;;;;;1.35;100.00;100006.19;4994920;28;20042;-85
2023/03/11 00:15:27;;;;;;;1.02;0.82;;;;;;;1.21;100.00;99991.50;4994754;28;20418;-84
2023/03/11 00:17:57;;;;;;;1.67;0.80;;;;;;;1.26;100.00;100008.66;4962924;28;20077;-87
2023/03/11 00:20:29;;;;;;;3.35;1.20;;;;;;;1.08;100.00;99978.50;4995430;28;20039;-83
2023/03/11 00:22:55;;;;;;;1.52;0.95;;;;;;;1.07;100.00;99971.53;4962969;28;20023;-83
2023/03/11 00:25:22;;;;;;;3.17;1.00;;;;;;;1.08;100.00;99974.03;4978064;28;20045;-90
2023/03/11 00:27:48;;;;;;;1.25;0.80;;;;;;;1.17;100.00;99983.00;4962695;28;20038;-90
2023/03/11 00:30:16;;;;;;;1.77;1.00;;;;;;;1.08;100.00;99954.66;4995241;28;20027;-91
2023/03/11 00:32:42;;;;;;;0.75;0.70;;;;;;;0.95;100.00;99952.25;4962739;28;20068;-81
2023/03/11 00:35:13;;;;;;;2.47;1.30;;;;;;;1.07;100.00;99963.59;4994996;28;20057;-82
2023/03/11 00:37:38;;;;;;;1.85;0.93;;;;;;;1.05;100.00;99966.38;4978854;28;20030;-94
2023/03/11 00:40:12;;;;;;;1.08;0.85;;;;;;;0.98;100.00;99970.53;4978811;28;20121;-86
2023/03/11 00:42:41;;;;;;;1.50;1.08;;;;;;;0.95;100.00;99978.72;4978057;28;20030;-88
2023/03/11 00:45:13;;;;;;;4.63;1.85;;;;;;;0.68;100.00;99947.56;4978026;28;20069;-88
2023/03/11 00:47:39;;;;;;;1.70;1.17;;;;;;;0.74;100.00;99976.16;4995225;28;20046;-83
2023/03/11 00:50:05;;;;;;;2.13;1.40;;;;;;;0.72;100.00;99980.72;4995004;28;20030;-89
2023/03/11 00:52:31;;;;;;;2.13;1.50;;;;;;;0.77;100.00;100010.28;4962116;28;20125;-90
2023/03/11 00:55:00;;;;;;;3.63;2.45;;;;;;;0.73;100.00;100011.50;4978109;28;20198;-90
2023/03/11 00:57:27;;;;;;;4.30;2.65;;;;;;;0.57;100.00;100004.03;4993458;28;20037;-83
2023/03/11 00:59:54;;;;;;;3.58;1.77;;;;;;;0.53;100.00;100004.41;4994149;28;20049;-87
2023/03/11 01:02:21;;;;;;;2.72;2.05;;;;;;;0.53;100.00;100017.63;4961590;28;20043;-88
2023/03/11 01:04:47;;;;;;;2.83;2.08;;;;;;;0.49;100.00;100008.31;4962075;28;20030;-85
2023/03/11 01:07:15;;;;;;;2.30;1.52;;;;;;;0.40;100.00;99994.06;4978681;28;20061;-89
2023/03/11 01:09:41;;;;;;;3.05;1.45;;;;;;;0.46;100.00;99998.81;4961469;28;20141;-92
2023/03/11 01:12:09;;;;;;;0.65;0.65;;;;;;;0.46;100.00;99993.53;4962486;28;20065;-89
2023/03/11 01:14:35;;;;;;;0.50;0.50;;;;;;;0.48;100.00;99996.03;4945514;28;20042;-89
2023/03/11 01:17:01;;;;;;;0.40;0.40;;;;;;;0.47;100.00;99994.34;4994799;28;20034;-91
2023/03/11 01:19:26;;;;;;;0.77;0.77;;;;;;;0.40;100.00;99978.19;4996572;28;20026;-86
2023/03/11 01:21:52;;;;;;;0.60;0.60;;;;;;;0.39;100.00;99973.84;4994290;28;20065;-86
2023/03/11 01:24:17;;;;;;;0.40;0.40;;;;;;;0.36;100.00;99984.69;4978051;28;20091;-84
2023/03/11 01:26:43;;;;;;;0.50;0.50;;;;;;;0.37;100.00;99984.56;4978370;28;20038;-88
2023/03/11 01:29:12;;;;;;;0.40;0.40;;;;;;;0.30;100.00;99983.41;4994723;28;20105;-86
2023/03/11 01:31:37;;;;;;;0.40;0.40;;;;;;;0.12;100.00;99961.16;4962631;28;20041;-89
2023/03/11 01:34:06;;;;;;;0.50;0.50;;;;;;;0.21;100.00;99987.66;4978069;28;20038;-83
2023/03/11 01:36:31;;;;;;;0.40;0.40;;;;;;;0.14;100.00;99983.84;4994570;28;20037;-93
2023/03/11 01:39:00;;;;;;;0.80;0.80;;;;;;;0.07;100.00;99964.16;4993987;28;20031;-88
2023/03/11 01:41:25;;;;;;;0.70;0.70;;;;;;;0.06;100.00;99966.97;4978786;28;20030;-88
2023/03/11 01:43:55;;;;;;;0.50;0.50;;;;;;;-0.02;100.00;99960.50;4995541;28;20057;-84
2023/03/11 01:46:21;;;;;;;0.40;0.40;;;;;;;-0.03;100.00;99955.31;5000305;28;20038;-83
2023/03/11 01:48:49;;;;;;;0.40;0.40;;;;;;;-0.12;100.00;99949.00;5002365;28;20425;-84
2023/03/11 01:51:29;;;;;;;0.50;0.50;;;;;;;-0.13;100.00;99955.28;4962334;28;20038;-84
2023/03/11 01:53:55;;;;;;;0.40;0.40;;;;;;;-0.06;100.00;99956.41;4977618;28;20393;-84
2023/03/11 01:56:22;;;;;;;0.40;0.40;;;;;;;-0.06;100.00;99955.59;4960797;28;20440;-90
2023/03/11 01:58:52;;;;;;;0.40;0.40;;;;;;;-0.06;100.00;99953.78;4992641;28;20117;-85
2023/03/11 02:01:20;;;;;;;0.43;0.43;;;;;;;-0.06;100.00;99937.91;4977000;28;20081;-83
2023/03/11 02:03:46;;;;;;;0.40;0.40;;;;;;;-0.05;100.00;99939.63;4993245;28;20030;-91
2023/03/11 02:06:15;;;;;;;0.50;0.50;;;;;;;0.05;100.00;99954.69;4977136;28;20057;-82
2023/03/11 02:08:41;;;;;;;0.40;0.40;;;;;;;0.04;100.00;99960.94;4960422;28;20038;-82
2023/03/11 02:11:10;;;;;;;0.40;0.40;;;;;;;-0.03;100.00;99952.69;4961026;28;20038;-85
2023/03/11 02:13:38;;;;;;;0.40;0.40;;;;;;;-0.02;100.00;99949.91;4992337;28;20034;-83
2023/03/11 02:16:05;;;;;;;0.50;0.50;;;;;;;-0.14;100.00;99929.78;4960591;28;20556;-87
2023/03/11 02:18:31;;;;;;;0.40;0.40;;;;;;;-0.06;100.00;99935.28;4976757;28;20038;-90
2023/03/11 02:21:16;;;;;;;0.50;0.50;;;;;;;0.01;100.00;99937.44;4996131;28;20041;-86
2023/03/11 02:24:00;;;;;;;0.43;0.43;;;;;;;0.05;100.00;99931.72;4997830;28;20027;-83
2023/03/11 02:26:26;;;;;;;0.50;0.50;;;;;;;0.07;100.00;99934.25;4963977;28;20393;-80
2023/03/11 02:28:55;;;;;;;0.50;0.50;;;;;;;0.06;100.00;99933.44;4997786;28;20027;-84
2023/03/11 02:31:24;;;;;;;0.40;0.40;;;;;;;0.07;100.00;99939.53;4964350;28;20129;-85
2023/03/11 02:33:52;;;;;;;0.52;0.52;;;;;;;0.09;100.00;99934.97;4964528;28;20085;-84
2023/03/11 02:36:38;;;;;;;0.50;0.50;;;;;;;0.03;100.00;99911.69;4964945;28;20034;-89
2023/03/11 02:39:06;;;;;;;0.40;0.40;;;;;;;0.09;100.00;99922.59;4964295;28;20034;-84
2023/03/11 02:41:38;;;;;;;0.40;0.40;;;;;;;0.02;100.00;99895.00;4980344;28;20041;-82
2023/03/11 02:44:11;;;;;;;0.40;0.40;;;;;;;0.08;100.00;99898.91;4974574;28;20041;-90
2023/03/11 02:46:38;;;;;;;0.40;0.40;;;;;;;0.11;100.00;99888.13;4964554;28;20039;-82
2023/03/11 02:49:04;;;;;;;0.40;0.40;;;;;;;0.06;100.00;99883.22;4980334;28;20512;-90
2023/03/11 02:51:29;;;;;;;0.40;0.40;;;;;;;0.13;100.00;99887.00;4995861;28;20026;-90
2023/03/11 02:53:59;;;;;;;0.40;0.40;;;;;;;0.08;100.00;99876.00;4996327;28;20038;-84
2023/03/11 02:56:28;;;;;;;0.43;0.43;;;;;;;0.18;100.00;99881.31;4964386;28;20487;-89
2023/03/11 02:58:59;;;;;;;0.40;0.40;;;;;;;0.22;100.00;99885.38;4964066;28;20049;-90
2023/03/11 03:01:25;;;;;;;0.50;0.50;;;;;;;0.22;100.00;99882.75;4964394;28;20038;-83
2023/03/11 03:03:56;;;;;;;0.40;0.40;;;;;;;0.17;100.00;99861.97;4980084;28;20042;-89
2023/03/11 03:06:21;;;;;;;0.50;0.50;;;;;;;0.27;100.00;99875.25;4963983;28;20545;-84
2023/03/11 03:08:50;;;;;;;0.47;0.47;;;;;;;0.25;100.00;99861.31;4980279;28;20073;-84
2023/03/11 03:11:15;;;;;;;0.40;0.40;;;;;;;0.28;100.00;99861.06;4964886;28;20049;-83
2023/03/11 03:13:41;;;;;;;0.40;0.40;;;;;;;0.29;100.00;99859.25;4979653;28;20030;-88
2023/03/11 03:16:07;;;;;;;0.70;0.70;;;;;;;0.27;100.00;99847.97;4979788;28;20121;-89
2023/03/11 03:18:32;;;;;;;0.43;0.43;;;;;;;0.34;100.00;99854.41;4996031;28;20041;-83
2023/03/11 03:21:01;;;;;;;0.50;0.50;;;;;;;0.36;100.00;99855.94;4980748;28;20062;-87
2023/03/11 03:23:27;;;;;;;0.50;0.50;;;;;;;0.32;100.00;99827.25;4990821;28;20053;-88
2023/03/11 03:25:52;;;;;;;0.50;0.50;;;;;;;0.43;100.00;99850.97;4963818;28;20034;-82
2023/03/11 03:28:18;;;;;;;0.40;0.40;;;;;;;0.43;100.00;99835.94;4997483;28;20091;-90
2023/03/11 03:30:46;;;;;;;0.50;0.50;;;;;;;0.44;100.00;99842.06;4995642;28;20034;-90
2023/03/11 03:33:12;;;;;;;0.50;0.50;;;;;;;0.45;100.00;99838.47;4996421;28;20036;-91
2023/03/11 03:35:42;;;;;;;0.40;0.40;;;;;;;0.49;100.00;99831.91;4996253;28;20053;-84
2023/03/11 03:38:08;;;;;;;0.40;0.40;;;;;;;0.52;100.00;99836.94;4963882;28;20034;-87
2023/03/11 03:40:34;;;;;;;0.45;0.45;;;;;;;0.50;100.00;99825.66;4947881;28;20141;-86
2023/03/11 03:43:00;;;;;;;0.40;0.40;;;;;;;0.54;100.00;99819.13;4996505;28;20031;-88
2023/03/11 03:45:26;;;;;;;0.50;0.50;;;;;;;0.55;100.00;99826.09;4996071;28;20037;-90
2023/03/11 03:47:52;;;;;;;0.40;0.40;;;;;;;0.50;100.00;99825.66;4995741;28;20132;-85
2023/03/11 03:50:21;;;;;;;0.50;0.50;;;;;;;0.56;100.00;99808.44;4979692;28;20041;-89
2023/03/11 03:52:49;;;;;;;0.40;0.40;;;;;;;0.49;100.00;99802.00;4979880;28;20045;-85
2023/03/11 03:55:15;;;;;;;0.45;0.45;;;;;;;0.50;100.00;99801.84;4963526;28;20038;-88
2023/03/11 03:57:40;;;;;;;0.50;0.50;;;;;;;0.43;100.00;99790.16;4996820;28;20042;-88
2023/03/11 04:00:10;;;;;;;0.40;0.40;;;;;;;0.50;100.00;99796.56;4997475;28;20470;-82
2023/03/11 04:02:36;;;;;;;0.40;0.40;;;;;;;0.46;100.00;99799.63;4991816;28;20093;-83
2023/03/11 04:05:01;;;;;;;0.82;0.82;;;;;;;0.51;100.00;99808.81;4971301;28;20464;-87
2023/03/11 04:07:40;;;;;;;0.40;0.40;;;;;;;0.44;100.00;99789.16;4980585;28;20038;-86
2023/03/11 04:10:06;;;;;;;0.40;0.40;;;;;;;0.49;100.00;99788.78;4963891;28;20038;-86
2023/03/11 04:12:32;;;;;;;0.50;0.50;;;;;;;0.54;100.00;99791.84;4963558;28;20042;-89
2023/03/11 04:14:57;;;;;;;0.40;0.40;;;;;;;0.51;100.00;99777.09;4963734;28;20461;-88
2023/03/11 04:17:23;;;;;;;0.40;0.40;;;;;;;0.57;100.00;99781.00;4996505;28;20031;-91
2023/03/11 04:19:49;;;;;;;0.40;0.40;;;;;;;0.63;100.00;99793.66;4963577;28;20428;-87
2023/03/11 04:22:15;;;;;;;0.50;0.50;;;;;;;0.65;100.00;99787.25;4979528;28;20036;-90
2023/03/11 04:24:43;;;;;;;0.50;0.50;;;;;;;0.65;100.00;99783.78;4995224;28;20038;-88
2023/03/11 04:27:12;;;;;;;0.40;0.40;;;;;;;0.69;100.00;99787.84;4979352;28;20033;-86
2023/03/11 04:29:38;;;;;;;0.40;0.40;;;;;;;0.70;100.00;99786.88;4995798;28;20039;-90
2023/03/11 04:32:04;;;;;;;0.45;0.45;;;;;;;0.69;100.00;99774.63;4978938;28;20370;-87
2023/03/11 04:34:29;;;;;;;0.40;0.40;;;;;;;0.73;100.00;99789.22;4963113;28;20539;-87
2023/03/11 04:36:55;;;;;;;0.50;0.50;;;;;;;0.70;100.00;99776.28;4996253;28;20101;-91
2023/03/11 04:39:21;;;;;;;0.40;0.40;;;;;;;0.71;100.00;99777.94;4980569;28;20450;-89
2023/03/11 04:41:46;;;;;;;0.40;0.40;;;;;;;0.76;100.00;99773.09;4998033;28;20492;-87
2023/03/11 04:44:12;;;;;;;0.40;0.40;;;;;;;0.74;100.00;99774.19;4963994;28;20465;-85
2023/03/11 04:46:37;;;;;;;0.40;0.40;;;;;;;0.74;100.00;99761.81;4982247;28;20034;-87
2023/03/11 04:49:03;;;;;;;0.40;0.40;;;;;;;0.76;100.00;99748.44;4999679;28;20034;-87
2023/03/11 04:51:32;;;;;;;0.40;0.40;;;;;;;0.74;100.00;99737.16;4964708;28;20034;-87
2023/03/11 04:53:57;;;;;;;0.40;0.40;;;;;;;0.71;100.00;99738.25;4978908;28;20069;-86
2023/03/11 04:56:23;;;;;;;0.50;0.50;;;;;;;0.83;100.00;99752.22;4995365;28;20092;-89
2023/03/11 04:58:48;;;;;;;0.40;0.40;;;;;;;0.88;100.00;99750.81;4978743;28;20038;-87
2023/03/11 05:01:14;;;;;;;0.50;0.50;;;;;;;0.91;100.00;99748.88;4994179;28;20045;-88
2023/03/11 05:03:42;;;;;;;0.40;0.40;;;;;;;0.87;100.00;99732.41;4977828;28;20334;-88
2023/03/11 05:06:10;;;;;;;0.50;0.50;;;;;;;0.97;100.00;99753.59;4961961;28;20030;-91
2023/03/11 05:08:36;;;;;;;0.50;0.50;;;;;;;0.90;100.00;99736.59;4995644;28;20481;-84
2023/03/11 05:11:05;;;;;;;0.50;0.50;;;;;;;1.00;100.00;99750.69;4994911;28;20034;-91
2023/03/11 05:13:30;;;;;;;0.50;0.50;;;;;;;1.02;100.00;99752.22;4995135;28;20030;-89
2023/03/11 05:15:56;;;;;;;0.40;0.40;;;;;;;1.02;100.00;99735.50;4980375;28;20037;-82
2023/03/11 05:18:21;;;;;;;0.50;0.50;;;;;;;1.04;100.00;99725.63;4972594;28;20117;-85
2023/03/11 05:20:47;;;;;;;0.40;0.40;;;;;;;1.14;100.00;99737.03;4987580;28;20030;-84
2023/03/11 05:23:13;;;;;;;0.40;0.40;;;;;;;1.13;100.00;99731.88;4988199;28;20034;-90
2023/03/11 05:25:38;;;;;;;0.40;0.40;;;;;;;1.16;100.00;99719.19;4983289;28;20027;-84
2023/03/11 05:28:04;;;;;;;0.40;0.40;;;;;;;1.14;100.00;99713.22;4994738;28;20489;-86
2023/03/11 05:30:30;;;;;;;0.40;0.40;;;;;;;1.12;100.00;99706.38;4977799;28;20045;-88
2023/03/11 05:33:01;;;;;;;0.40;0.40;;;;;;;1.13;100.00;99710.69;4994640;28;20030;-83
2023/03/11 05:35:27;;;;;;;0.65;0.65;;;;;;;1.09;100.00;99704.84;4995066;28;20075;-89
2023/03/11 05:37:56;;;;;;;0.40;0.40;;;;;;;1.14;100.00;99712.34;4980720;28;20423;-86
2023/03/11 05:40:21;;;;;;;0.50;0.50;;;;;;;1.17;100.00;99715.56;4962066;28;20092;-84
2023/03/11 05:42:47;;;;;;;0.40;0.40;;;;;;;1.12;100.00;99709.88;4977251;28;20042;-85
2023/03/11 05:45:16;;;;;;;0.50;0.50;;;;;;;1.20;100.00;99711.81;4977204;28;20121;-89
2023/03/11 05:47:42;;;;;;;0.50;0.50;;;;;;;1.10;100.00;99695.91;4993557;28;20469;-87
2023/03/11 05:50:12;;;;;;;0.50;0.50;;;;;;;1.16;100.00;99708.59;4992976;28;20038;-88
2023/03/11 05:52:38;;;;;;;0.50;0.50;;;;;;;1.18;100.00;99705.81;4993182;28;20432;-87
2023/03/11 05:55:04;;;;;;;0.50;0.50;;;;;;;1.14;100.00;99692.03;4976855;28;20034;-91
2023/03/11 05:57:30;;;;;;;0.50;0.50;;;;;;;1.18;100.00;99706.63;4994086;28;20034;-90
2023/03/11 05:59:59;;;;;;;0.50;0.50;;;;;;;1.18;100.00;99700.50;4993090;28;20034;-92
2023/03/11 06:02:25;;;;;;;0.50;0.50;;;;;;;1.17;100.00;99697.03;4993292;28;20089;-89
2023/03/11 06:04:52;;;;;;;0.40;0.40;;;;;;;1.20;100.00;99690.63;4993611;28;20042;-90
2023/03/11 06:07:20;;;;;;;0.40;0.40;;;;;;;1.21;100.00;99689.63;4993367;28;20034;-85
2023/03/11 06:10:08;;;;;;;0.50;0.50;;;;;;;1.24;100.00;99684.88;4961815;28;20406;-87
2023/03/11 06:12:34;;;;;;;0.50;0.50;;;;;;;1.23;100.00;99669.97;4993907;28;20030;-88
2023/03/11 06:14:59;;;;;;;0.40;0.40;;;;;;;1.28;100.00;99665.09;5003019;28;20397;-82
2023/03/11 06:17:30;;;;;;;0.40;0.40;;;;;;;1.32;100.00;99662.97;5004764;28;20405;-83
2023/03/11 06:20:00;;;;;;;0.55;0.55;;;;;;;1.30;100.00;99660.50;4977770;28;20053;-91
2023/03/11 06:22:28;;;;;;;0.40;0.40;;;;;;;1.35;100.00;99654.78;4961116;28;20060;-88
2023/03/11 06:24:54;;;;;;;0.40;0.40;;;;;;;1.30;100.00;99643.78;4977092;28;20511;-84
2023/03/11 06:27:23;;;;;;;0.50;0.50;;;;;;;1.37;100.00;99644.03;4992282;28;20038;-91
2023/03/11 06:29:53;;;;;;;0.40;0.40;;;;;;;1.43;100.00;99646.94;4990170;28;20101;-91
2023/03/11 06:32:18;;;;;;;0.40;0.40;;;;;;;1.46;100.00;99653.78;4977040;28;20042;-90
2023/03/11 06:34:49;;;;;;;0.40;0.40;;;;;;;1.44;100.00;99637.19;4978157;28;20189;-85
2023/03/11 06:37:14;;;;;;;0.40;0.40;;;;;;;1.43;100.00;99636.34;4977156;28;20027;-85
2023/03/11 06:39:40;;;;;;;0.50;0.50;;;;;;;1.39;100.00;99627.00;4976558;28;20026;-84
2023/03/11 06:42:09;;;;;;;0.50;0.50;;;;;;;1.49;100.00;99629.63;4976849;28;20535;-86
2023/03/11 06:44:37;;;;;;;0.50;0.50;;;;;;;1.56;100.00;99625.41;4992837;28;20041;-90
2023/03/11 06:47:03;;;;;;;0.50;0.50;;;;;;;1.53;100.00;99607.16;4992873;28;20033;-85
2023/03/11 06:49:31;;;;;;;0.40;0.40;;;;;;;1.57;100.00;99619.13;4992935;28;20038;-89
2023/03/11 06:51:57;;;;;;;0.50;0.50;;;;;;;1.56;100.00;99614.81;4992760;28;20027;-89
2023/03/11 06:54:22;;;;;;;0.50;0.50;;;;;;;1.62;100.00;99613.41;4976182;28;20137;-83
2023/03/11 06:56:51;;;;;;;0.40;0.40;;;;;;;1.61;100.00;99609.91;4992769;28;20081;-83
2023/03/11 06:59:18;;;;;;;0.50;0.50;;;;;;;1.60;100.00;99610.06;4973574;28;20481;-87
2023/03/11 07:01:48;;;;;;;0.57;0.57;;;;;;;1.62;100.00;99606.28;4993757;28;20106;-85
2023/03/11 07:04:13;;;;;;;0.50;0.50;;;;;;;1.64;100.00;99609.63;4960645;28;20034;-83
2023/03/11 07:06:40;;;;;;;0.40;0.40;;;;;;;1.64;100.00;99614.94;4993562;28;20054;-85
2023/03/11 07:09:06;;;;;;;0.50;0.50;;;;;;;1.70;100.00;99602.91;4964542;28;20461;-86
2023/03/11 07:11:34;;;;;;;0.50;0.50;;;;;;;1.72;100.00;99598.28;4996148;28;20033;-89
2023/03/11 07:14:00;;;;;;;0.40;0.40;;;;;;;1.66;100.00;99585.63;4995588;28;20030;-84
2023/03/11 07:16:29;;;;;;;0.40;0.40;;;;;;;1.73;100.00;99586.72;4995484;28;20038;-90
2023/03/11 07:19:01;;;;;;;0.40;0.40;;;;;;;1.81;100.00;99592.09;4979179;28;20030;-91
2023/03/11 07:21:28;;;;;;;0.50;0.50;;;;;;;1.86;100.00;99589.03;4996136;28;20035;-88
2023/03/11 07:23:56;;;;;;;0.50;0.50;;;;;;;1.89;100.00;99581.59;4981827;28;20057;-84
2023/03/11 07:26:36;;;;;;;0.40;0.40;;;;;;;1.93;100.00;99582.97;4996421;28;20117;-86
2023/03/11 07:29:02;;;;;;;0.45;0.45;;;;;;;1.93;100.00;99571.50;4995052;28;20110;-90
2023/03/11 07:31:33;;;;;;;0.50;0.50;;;;;;;1.98;100.00;99559.50;4996316;28;20038;-84
2023/03/11 07:34:00;;;;;;;0.50;0.50;;;;;;;2.04;100.00;99557.22;4979687;28;20037;-83
2023/03/11 07:36:30;;;;;;;0.50;0.50;;;;;;;2.09;100.00;99550.50;4963304;28;20038;-85
2023/03/11 07:39:02;;;;;;;0.50;0.50;;;;;;;2.15;100.00;99560.50;4979335;28;20072;-90
2023/03/11 07:41:29;;;;;;;0.40;0.40;;;;;;;2.20;100.00;99560.03;4979865;28;20030;-83
2023/03/11 07:43:56;;;;;;;0.50;0.50;;;;;;;2.24;100.00;99548.13;4963281;28;20043;-90
2023/03/11 07:46:24;;;;;;;0.40;0.40;;;;;;;2.26;100.00;99542.69;4963079;28;20038;-83
2023/03/11 07:48:50;;;;;;;0.50;0.50;;;;;;;2.24;100.00;99539.34;4963233;28;20031;-85
2023/03/11 07:51:19;;;;;;;0.40;0.40;;;;;;;2.30;100.00;99550.19;4978604;28;20034;-88
2023/03/11 07:53:45;;;;;;;0.50;0.50;;;;;;;2.41;100.00;99539.34;4962517;28;20429;-87
2023/03/11 07:56:12;;;;;;;0.40;0.40;;;;;;;2.50;100.00;99542.88;4994626;28;20121;-87
2023/03/11 07:58:38;;;;;;;0.43;0.43;;;;;;;2.56;100.00;99536.94;4994539;28;20035;-89
2023/03/11 08:01:10;;;;;;;0.40;0.40;;;;;;;2.65;100.00;99529.91;4994956;28;20370;-87
2023/03/11 08:03:36;;;;;;;0.40;0.40;;;;;;;2.72;100.00;99515.00;4978564;28;20042;-88
2023/03/11 08:06:13;;;;;;;0.40;0.40;;;;;;;2.79;100.00;99521.38;4978326;28;20030;-88
2023/03/11 08:08:40;;;;;;;0.40;0.40;;;;;;;2.80;100.00;99516.88;4948072;28;20072;-85
2023/03/11 08:11:12;;;;;;;0.50;0.50;;;;;;;2.80;100.00;99530.16;4995351;28;20354;-87
2023/03/11 08:13:38;;;;;;;0.40;0.40;;;;;;;2.85;100.00;99514.59;4996040;28;20058;-86
2023/03/11 08:16:06;;;;;;;0.45;0.45;;;;;;;3.05;100.00;99521.34;4965603;28;20129;-86
2023/03/11 08:18:32;;;;;;;0.40;0.40;;;;;;;3.12;100.00;99512.75;4975355;28;20076;-87
2023/03/11 08:20:58;;;;;;;0.40;0.40;;;;;;;3.29;100.00;99514.50;4962757;28;20501;-89
2023/03/11 08:23:23;;;;;;;0.50;0.50;;;;;;;3.45;100.00;99513.75;4962991;28;20061;-86
2023/03/11 08:25:50;;;;;;;0.40;0.40;;;;;;;3.57;100.00;99514.25;4978357;28;20041;-85
2023/03/11 08:28:15;;;;;;;0.40;0.40;;;;;;;3.76;100.00;99506.03;4984827;28;20389;-86
2023/03/11 08:30:41;;;;;;;0.50;0.50;;;;;;;3.86;100.00;99493.41;4994613;28;20038;-88
2023/03/11 08:33:07;;;;;;;0.50;0.50;;;;;;;4.02;100.00;99497.06;4962326;28;20026;-87
2023/03/11 08:35:33;;;;;;;0.40;0.40;;;;;;;3.89;100.00;99485.13;4978409;28;20469;-84
2023/03/11 08:37:58;;;;;;;0.40;0.40;;;;;;;3.88;100.00;99506.53;4993594;28;20049;-85
2023/03/11 08:40:24;;;;;;;0.40;0.40;;;;;;;3.74;100.00;99508.84;4961413;28;20473;-86
2023/03/11 08:42:50;;;;;;;0.50;0.50;;;;;;;3.70;100.00;99493.38;4978299;28;20090;-88
2023/03/11 08:45:18;;;;;;;0.50;0.50;;;;;;;3.97;100.00;99490.44;4993546;28;20033;-87
2023/03/11 08:47:44;;;;;;;0.50;0.50;;;;;;;4.08;100.00;99488.47;4977297;28;20026;-85
2023/03/11 08:50:15;;;;;;;0.40;0.40;;;;;;;4.21;100.00;99483.47;4977944;28;20034;-84
2023/03/11 08:52:41;;;;;;;0.40;0.40;;;;;;;4.28;100.00;99483.63;4961372;28;20142;-88
2023/03/11 08:55:13;;;;;;;0.40;0.40;;;;;;;4.25;100.00;99487.44;4961945;28;20145;-84
2023/03/11 08:57:41;;;;;;;0.40;0.40;;;;;;;4.22;100.00;99490.44;4978332;28;20117;-86
2023/03/11 09:00:08;;;;;;;0.40;0.40;;;;;;;4.15;100.00;99478.81;4961312;28;20073;-87
2023/03/11 09:02:36;;;;;;;0.40;0.40;;;;;;;4.20;100.00;99489.78;4993803;28;20030;-89
2023/03/11 09:05:02;;;;;;;0.43;0.43;;;;;;;4.20;100.00;99484.47;4977915;28;20038;-87
2023/03/11 09:07:28;;;;;;;0.40;0.40;;;;;;;4.24;100.00;99484.97;4994940;28;20031;-84
2023/03/11 09:09:54;;;;;;;0.40;0.40;;;;;;;4.22;100.00;99487.78;4977754;28;20042;-89
2023/03/11 09:12:22;;;;;;;0.40;0.40;;;;;;;4.29;100.00;99491.47;4961129;28;20065;-89
2023/03/11 09:14:48;;;;;;;0.40;0.40;;;;;;;4.35;100.00;99488.13;4961247;28;20472;-82
2023/03/11 09:17:16;;;;;;;0.50;0.50;;;;;;;4.49;100.00;99491.94;4977247;28;20061;-86
2023/03/11 09:19:42;;;;;;;0.50;0.50;;;;;;;4.58;100.00;99476.81;4977507;28;20038;-85
2023/03/11 09:22:08;;;;;;;0.40;0.40;;;;;;;4.61;100.00;99466.63;4961183;28;20035;-84
2023/03/11 09:24:34;;;;;;;0.40;0.40;;;;;;;4.82;100.00;99476.75;4993771;28;20040;-86
2023/03/11 09:27:01;;;;;;;0.43;0.43;;;;;;;4.91;100.00;99482.88;4961809;28;20421;-87
2023/03/11 09:29:27;;;;;;;0.40;0.40;;;;;;;4.90;100.00;99457.25;4978232;28;20041;-87
2023/03/11 09:31:52;;;;;;;0.50;0.50;;;;;;;5.18;100.00;99480.81;4962191;28;20133;-89
2023/03/11 09:34:21;;;;;;;0.50;0.50;;;;;;;5.13;100.00;99472.50;4993879;28;20076;-81
2023/03/11 09:36:47;;;;;;;0.40;0.40;;;;;;;5.38;100.00;99484.72;4977557;28;20030;-90
2023/03/11 09:39:13;;;;;;;0.40;0.40;;;;;;;5.59;100.00;99484.13;4993718;28;20035;-90
2023/03/11 09:41:53;;;;;;;0.50;0.50;;;;;;;5.75;100.00;99480.53;4992608;28;20031;-87
2023/03/11 09:44:34;;;;;;;0.47;0.47;;;;;;;5.73;100.00;99471.88;4992830;28;20142;-90
2023/03/11 09:47:03;;;;;;;0.40;0.40;;;;;;;5.66;100.00;99469.09;4993957;28;20477;-89
2023/03/11 09:49:46;;;;;;;0.40;0.40;;;;;;;5.55;100.00;99466.78;4992917;28;20030;-86
2023/03/11 09:52:18;;;;;;;0.40;0.40;;;;;;;5.48;100.00;99464.00;4977201;28;20070;-88
2023/03/11 09:54:50;;;;;;;0.40;0.40;;;;;;;5.43;100.00;99454.88;4960817;28;20048;-90
2023/03/11 09:57:21;;;;;;;0.40;0.40;;;;;;;5.58;100.00;99463.78;4957711;28;20129;-84
2023/03/11 09:59:47;;;;;;;0.40;0.40;;;;;;;5.63;100.00;99460.59;4991711;28;20354;-86
2023/03/11 10:02:25;;;;;;;0.40;0.40;;;;;;;5.69;100.00;99455.41;4960445;28;20038;-86
2023/03/11 10:04:57;;;;;;;0.40;0.40;;;;;;;5.82;100.00;99449.50;4977311;28;20046;-81
2023/03/11 10:07:27;;;;;;;0.40;0.40;;;;;;;5.77;100.00;99440.31;4959850;28;20039;-84
2023/03/11 10:09:57;;;;;;;0.40;0.40;;;;;;;5.81;100.00;99455.00;4960578;28;20039;-88
2023/03/11 10:12:48;;;;;;;0.40;0.40;;;;;;;5.78;100.00;99447.34;4992412;28;20038;-84
2023/03/11 10:15:35;;;;;;;0.50;0.50;;;;;;;5.80;100.00;99445.34;4993472;28;20036;-83
2023/03/11 10:18:13;;;;;;;0.50;0.50;;;;;;;5.83;100.00;99447.66;4992434;28;20030;-86
2023/03/11 10:20:56;;;;;;;0.40;0.40;;;;;;;5.77;100.00;99419.00;4976443;28;20464;-88
2023/03/11 10:23:53;;;;;;;0.50;0.50;;;;;;;6.27;100.00;99433.63;4992555;28;20130;-90
2023/03/11 10:26:22;;;;;;;0.40;0.40;;;;;;;6.31;100.00;99425.09;4993309;28;20030;-88
2023/03/11 10:28:56;;;;;;;0.40;0.40;;;;;;;6.44;100.00;99407.63;4960293;28;20027;-83
2023/03/11 10:31:52;;;;;;;0.40;0.40;;;;;;;6.49;100.00;99429.28;4970816;28;20062;-82
2023/03/11 10:34:33;;;;;;;0.55;0.55;;;;;;;6.40;100.00;99436.53;4993061;28;20049;-87
2023/03/11 10:37:34;;;;;;;0.40;0.40;;;;;;;6.41;100.00;99426.69;4960389;28;20425;-85
2023/03/11 10:40:36;;;;;;;0.40;0.40;;;;;;;6.49;100.00;99437.28;4988129;28;20432;-88
2023/03/11 10:43:24;;;;;;;0.50;0.50;;;;;;;6.62;100.00;99434.81;4981015;28;20116;-89
2023/03/11 10:45:53;;;;;;;0.50;0.50;;;;;;;6.82;100.00;99427.09;4958020;28;20034;-89
2023/03/11 10:48:19;;;;;;;0.40;0.40;;;;;;;6.79;100.00;99422.13;4996496;28;20093;-90
2023/03/11 10:51:01;;;;;;;0.50;0.50;;;;;;;6.71;100.00;99408.84;4996352;28;20111;-88
2023/03/11 10:53:26;;;;;;;0.30;0.30;;;;;;;6.65;100.00;99423.78;4979439;28;20037;-85
2023/03/11 10:55:54;;;;;;;0.40;0.40;;;;;;;6.50;100.00;99421.06;4981083;28;20038;-89
2023/03/11 10:58:29;;;;;;;0.40;0.40;;;;;;;6.38;100.00;99407.34;4970275;28;20464;-87
2023/03/11 11:01:12;;;;;;;0.50;0.50;;;;;;;6.04;100.00;99372.31;4966462;28;20042;-87
2023/03/11 11:03:41;;;;;;;0.40;0.40;;;;;;;6.20;100.00;99403.34;4971755;28;20194;-87
2023/03/11 11:06:18;;;;;;;0.40;0.40;;;;;;;6.38;100.00;99420.69;4989996;28;20022;-87
2023/03/11 11:08:46;;;;;;;0.40;0.40;;;;;;;6.45;100.00;99394.09;4989378;28;20054;-89
2023/03/11 11:11:20;;;;;;;0.40;0.40;;;;;;;6.63;100.00;99403.59;4980298;28;20035;-89
2023/03/11 11:13:57;;;;;;;0.40;0.40;;;;;;;6.83;100.00;99394.84;4979797;28;20039;-88
2023/03/11 11:16:23;;;;;;;0.45;0.45;;;;;;;6.95;100.00;99392.53;4979740;28;20134;-89
2023/03/11 11:18:55;;;;;;;0.50;0.50;;;;;;;6.97;100.00;99370.97;4963682;28;20067;-89
2023/03/11 11:21:28;;;;;;;0.40;0.40;;;;;;;7.09;100.00;99368.63;4995725;28;20069;-91
2023/03/11 11:24:17;;;;;;;0.50;0.50;;;;;;;7.45;100.00;99390.84;4995673;28;20065;-89
2023/03/11 11:27:21;;;;;;;0.50;0.50;;;;;;;7.26;100.00;99386.94;4979964;28;20030;-91
2023/03/11 11:30:22;;;;;;;0.43;0.43;;;;;;;7.31;100.00;99388.25;4962426;28;20481;-90
2023/03/11 11:32:54;;;;;;;0.50;0.50;;;;;;;7.34;100.00;99414.59;4995807;28;20469;-89
2023/03/11 11:35:22;;;;;;;0.40;0.40;;;;;;;7.23;100.00;99426.59;4983707;28;20092;-89
2023/03/11 11:37:54;;;;;;;0.50;0.50;;;;;;;7.25;100.00;99408.50;4974731;28;20038;-90
2023/03/11 11:40:26;;;;;;;0.40;0.40;;;;;;;7.34;100.00;99391.34;4973024;28;20049;-89